Time;durP1;ratioP1;P1;durP2;ratioP2;P2;SDS_P1;SDS_P2;PMS_P1;PMS_P2;Temp;Humidity;BMP_temperature;BMP_pressure;BME280_temperature;BME280_humidity;BME280_pressure;Samples;Min_cycle;Max_cycle;Signal;HPM_P1;HPM_P2
2021/03/13 00:01:20;;;;;;;80.00;36.88;;;;;;;;;;4990231;28;20543;-57
2021/03/13 00:03:45;;;;;;;73.97;34.53;;;;;;;;;;4990163;28;20010;-57
2021/03/13 00:06:11;;;;;;;83.32;37.20;;;;;;;;;;4990790;28;20033;-58
2021/03/13 00:08:37;;;;;;;63.58;32.10;;;;;;;;;;4990253;28;20061;-58
2021/03/13 00:11:07;;;;;;;67.38;31.83;;;;;;;;;;4990364;28;20028;-58
2021/03/13 00:13:33;;;;;;;71.15;32.55;;;;;;;;;;4990284;28;20019;-58
2021/03/13 00:15:58;;;;;;;62.33;30.65;;;;;;;;;;4990454;28;20034;-57
2021/03/13 00:18:26;;;;;;;56.65;27.70;;;;;;;;;;4992095;28;20026;-58
2021/03/13 00:20:52;;;;;;;60.30;29.17;;;;;;;;;;4993460;28;20076;-64
2021/03/13 00:23:18;;;;;;;58.78;29.42;;;;;;;;;;4993597;28;20022;-64
2021/03/13 00:25:44;;;;;;;54.47;26.30;;;;;;;;;;4993455;28;20061;-64
2021/03/13 00:28:09;;;;;;;64.90;29.77;;;;;;;;;;4993507;28;20453;-64
2021/03/13 00:30:36;;;;;;;56.13;27.95;;;;;;;;;;4993409;28;20034;-64
2021/03/13 00:33:09;;;;;;;62.67;29.42;;;;;;;;;;4993540;28;20018;-64
2021/03/13 00:35:35;;;;;;;55.78;27.67;;;;;;;;;;4993418;28;20030;-64
2021/03/13 00:38:01;;;;;;;60.50;28.10;;;;;;;;;;4993143;28;20509;-64
2021/03/13 00:40:28;;;;;;;56.65;29.30;;;;;;;;;;4993402;28;20042;-64
2021/03/13 00:42:54;;;;;;;64.22;31.15;;;;;;;;;;4993262;28;20068;-64
2021/03/13 00:45:21;;;;;;;73.75;30.40;;;;;;;;;;4993350;28;20030;-64
2021/03/13 00:47:47;;;;;;;59.22;27.63;;;;;;;;;;4993293;28;20071;-64
2021/03/13 00:50:13;;;;;;;50.72;25.88;;;;;;;;;;4993574;28;20061;-64
2021/03/13 00:52:39;;;;;;;48.67;24.73;;;;;;;;;;4991923;28;20022;-64
2021/03/13 00:55:06;;;;;;;50.45;24.92;;;;;;;;;;4992915;28;20026;-64
2021/03/13 00:57:32;;;;;;;50.35;25.15;;;;;;;;;;4992933;28;20015;-64
2021/03/13 00:59:59;;;;;;;52.03;25.67;;;;;;;;;;4991885;28;20019;-64
2021/03/13 01:02:24;;;;;;;52.75;25.08;;;;;;;;;;5008299;28;20022;-64
2021/03/13 01:04:50;;;;;;;50.05;24.25;;;;;;;;;;4992565;28;20409;-64
2021/03/13 01:07:18;;;;;;;47.38;24.00;;;;;;;;;;4992730;28;20026;-64
2021/03/13 01:09:44;;;;;;;50.38;23.88;;;;;;;;;;4992761;28;20420;-64
2021/03/13 01:12:09;;;;;;;48.03;24.58;;;;;;;;;;4992491;28;20042;-64
2021/03/13 01:14:35;;;;;;;53.55;22.40;;;;;;;;;;4993091;28;20046;-64
2021/03/13 01:17:00;;;;;;;49.80;23.98;;;;;;;;;;4991745;28;20350;-64
2021/03/13 01:19:26;;;;;;;50.78;25.30;;;;;;;;;;4991221;28;20083;-63
2021/03/13 01:21:53;;;;;;;58.38;27.45;;;;;;;;;;4991571;28;20022;-64
2021/03/13 01:24:19;;;;;;;70.65;31.77;;;;;;;;;;4991513;28;20053;-64
2021/03/13 01:26:45;;;;;;;49.40;25.35;;;;;;;;;;4991518;28;20159;-64
2021/03/13 01:29:12;;;;;;;51.92;23.90;;;;;;;;;;4991180;28;20035;-64
2021/03/13 01:31:44;;;;;;;40.35;22.00;;;;;;;;;;5007720;28;20117;-64
2021/03/13 01:34:10;;;;;;;48.85;24.45;;;;;;;;;;4992316;28;20165;-65
2021/03/13 01:36:41;;;;;;;46.05;22.77;;;;;;;;;;5007774;28;20023;-64
2021/03/13 01:39:06;;;;;;;46.05;21.73;;;;;;;;;;4992360;28;20489;-64
2021/03/13 01:41:32;;;;;;;41.40;21.23;;;;;;;;;;5007584;28;20458;-64
2021/03/13 01:43:58;;;;;;;43.85;20.65;;;;;;;;;;5007624;28;20026;-64
2021/03/13 01:46:27;;;;;;;45.13;21.55;;;;;;;;;;4991155;28;20105;-64
2021/03/13 01:48:53;;;;;;;41.28;20.90;;;;;;;;;;4991147;28;20113;-64
2021/03/13 01:51:22;;;;;;;51.55;23.90;;;;;;;;;;4990704;28;20030;-64
2021/03/13 01:53:49;;;;;;;54.75;25.35;;;;;;;;;;5006964;28;20072;-64
2021/03/13 01:56:20;;;;;;;53.38;25.58;;;;;;;;;;4990881;28;20023;-64
2021/03/13 01:58:56;;;;;;;51.60;26.10;;;;;;;;;;4990992;28;20450;-64
2021/03/13 02:01:31;;;;;;;45.85;22.77;;;;;;;;;;4990800;28;20111;-63
2021/03/13 02:03:58;;;;;;;59.33;28.23;;;;;;;;;;4991471;28;20447;-63
2021/03/13 02:06:23;;;;;;;51.80;25.77;;;;;;;;;;4990895;28;20106;-63
2021/03/13 02:08:49;;;;;;;57.85;25.20;;;;;;;;;;4990153;28;20125;-63
2021/03/13 02:11:34;;;;;;;50.15;23.52;;;;;;;;;;4992068;28;20022;-64
2021/03/13 02:14:03;;;;;;;45.35;21.52;;;;;;;;;;4974434;28;20036;-64
2021/03/13 02:16:35;;;;;;;47.03;21.15;;;;;;;;;;4990374;28;20473;-64
2021/03/13 02:19:10;;;;;;;43.38;23.23;;;;;;;;;;4990505;28;20022;-64
2021/03/13 02:21:39;;;;;;;57.70;27.65;;;;;;;;;;4990680;28;20034;-64
2021/03/13 02:24:18;;;;;;;80.60;36.45;;;;;;;;;;4990537;28;20019;-65
2021/03/13 02:26:52;;;;;;;70.65;32.75;;;;;;;;;;4990657;28;20040;-64
2021/03/13 02:29:34;;;;;;;62.35;30.92;;;;;;;;;;4990654;28;20049;-64
2021/03/13 02:32:06;;;;;;;73.78;34.65;;;;;;;;;;4990384;28;20034;-63
2021/03/13 02:34:36;;;;;;;81.53;37.83;;;;;;;;;;4990488;28;20064;-63
2021/03/13 02:37:05;;;;;;;65.35;32.05;;;;;;;;;;5006690;28;20429;-63
2021/03/13 02:39:36;;;;;;;56.42;26.17;;;;;;;;;;5006741;28;20031;-63
2021/03/13 02:42:06;;;;;;;43.53;21.35;;;;;;;;;;4989748;28;20420;-63
2021/03/13 02:44:35;;;;;;;44.13;21.10;;;;;;;;;;4990560;28;20022;-64
2021/03/13 02:47:07;;;;;;;40.63;20.85;;;;;;;;;;5006861;28;20034;-64
2021/03/13 02:49:41;;;;;;;37.00;17.65;;;;;;;;;;4990221;28;20042;-65
2021/03/13 02:52:14;;;;;;;35.83;18.33;;;;;;;;;;4975078;28;20034;-64
2021/03/13 02:54:48;;;;;;;41.22;19.98;;;;;;;;;;4991282;28;20030;-64
2021/03/13 02:57:16;;;;;;;47.00;23.50;;;;;;;;;;5006435;28;20171;-63
2021/03/13 02:59:43;;;;;;;56.63;27.42;;;;;;;;;;4990131;28;20075;-63
2021/03/13 03:02:13;;;;;;;56.58;26.42;;;;;;;;;;4991015;28;20022;-63
2021/03/13 03:04:39;;;;;;;55.22;25.88;;;;;;;;;;5005388;28;20417;-64
2021/03/13 03:07:06;;;;;;;44.10;22.88;;;;;;;;;;4989665;28;20031;-64
2021/03/13 03:09:32;;;;;;;70.90;35.47;;;;;;;;;;4989806;28;20026;-64
2021/03/13 03:11:59;;;;;;;71.18;35.88;;;;;;;;;;4989859;28;20060;-64
2021/03/13 03:14:26;;;;;;;61.85;32.38;;;;;;;;;;4991150;28;20121;-64
2021/03/13 03:16:53;;;;;;;61.72;30.50;;;;;;;;;;4991138;28;20109;-63
2021/03/13 03:19:25;;;;;;;54.55;27.48;;;;;;;;;;4989643;28;20027;-63
2021/03/13 03:21:59;;;;;;;59.25;29.52;;;;;;;;;;4989843;28;20031;-63
2021/03/13 03:24:25;;;;;;;51.17;26.45;;;;;;;;;;4989649;28;20092;-64
2021/03/13 03:26:51;;;;;;;41.45;23.52;;;;;;;;;;4989633;28;20026;-64
2021/03/13 03:29:17;;;;;;;50.35;25.92;;;;;;;;;;5006008;28;20031;-63
2021/03/13 03:31:43;;;;;;;35.00;19.00;;;;;;;;;;4989654;28;20503;-63
2021/03/13 03:34:13;;;;;;;38.00;19.95;;;;;;;;;;4989357;28;20038;-63
2021/03/13 03:36:41;;;;;;;47.58;25.73;;;;;;;;;;5005622;28;20030;-64
2021/03/13 03:39:08;;;;;;;46.70;24.13;;;;;;;;;;4989483;28;20464;-64
2021/03/13 03:41:38;;;;;;;41.53;21.67;;;;;;;;;;4990877;28;20022;-64
2021/03/13 03:44:10;;;;;;;40.15;21.10;;;;;;;;;;4989580;28;20545;-64
2021/03/13 03:46:38;;;;;;;41.17;20.63;;;;;;;;;;4989844;28;20029;-64
2021/03/13 03:49:07;;;;;;;52.03;24.48;;;;;;;;;;4989442;28;20385;-64
2021/03/13 03:51:40;;;;;;;49.55;22.88;;;;;;;;;;4989417;28;20031;-64
2021/03/13 03:54:12;;;;;;;38.83;19.15;;;;;;;;;;4992224;28;20026;-64
2021/03/13 03:56:41;;;;;;;38.10;18.60;;;;;;;;;;4993890;28;20143;-63
2021/03/13 03:59:14;;;;;;;33.25;17.40;;;;;;;;;;4993439;28;20027;-63
2021/03/13 04:01:43;;;;;;;31.65;16.55;;;;;;;;;;4993999;28;20019;-63
2021/03/13 04:04:09;;;;;;;30.05;15.35;;;;;;;;;;4993327;28;20078;-63
2021/03/13 04:06:36;;;;;;;33.95;16.88;;;;;;;;;;4994026;28;20474;-63
2021/03/13 04:09:02;;;;;;;31.05;15.73;;;;;;;;;;4992693;28;20034;-63
2021/03/13 04:11:28;;;;;;;31.30;14.80;;;;;;;;;;4993703;28;20034;-64
2021/03/13 04:13:57;;;;;;;29.88;15.15;;;;;;;;;;4993584;28;20135;-64
2021/03/13 04:16:23;;;;;;;29.73;14.35;;;;;;;;;;4993634;28;20054;-64
2021/03/13 04:18:48;;;;;;;33.03;15.95;;;;;;;;;;4993705;28;20385;-64
2021/03/13 04:21:15;;;;;;;31.48;15.95;;;;;;;;;;4993858;28;20030;-63
2021/03/13 04:23:42;;;;;;;37.13;18.10;;;;;;;;;;4992456;28;20374;-63
2021/03/13 04:26:08;;;;;;;42.55;18.38;;;;;;;;;;4993529;28;20038;-62
2021/03/13 04:28:33;;;;;;;38.08;18.10;;;;;;;;;;4993631;28;20038;-61
2021/03/13 04:31:00;;;;;;;41.97;18.80;;;;;;;;;;4993669;28;20113;-61
2021/03/13 04:33:28;;;;;;;39.55;18.92;;;;;;;;;;4993444;28;20451;-63
2021/03/13 04:35:54;;;;;;;41.83;19.33;;;;;;;;;;4993498;28;20187;-61
2021/03/13 04:38:21;;;;;;;35.58;17.85;;;;;;;;;;4993400;28;20530;-61
2021/03/13 04:40:48;;;;;;;25.27;13.10;;;;;;;;;;4993510;28;20080;-61
2021/03/13 04:43:14;;;;;;;27.40;14.07;;;;;;;;;;4993351;28;20377;-61
2021/03/13 04:45:40;;;;;;;26.83;13.20;;;;;;;;;;4993340;28;20034;-61
2021/03/13 04:48:06;;;;;;;28.05;13.48;;;;;;;;;;4993281;28;20023;-61
2021/03/13 04:50:32;;;;;;;27.77;14.13;;;;;;;;;;4993401;28;20026;-61
2021/03/13 04:52:57;;;;;;;25.73;13.07;;;;;;;;;;4992821;28;20026;-61
2021/03/13 04:55:23;;;;;;;30.88;13.65;;;;;;;;;;4993121;28;20065;-61
2021/03/13 04:57:48;;;;;;;24.35;12.48;;;;;;;;;;4993442;28;20018;-61
2021/03/13 05:00:15;;;;;;;26.02;12.70;;;;;;;;;;4993100;28;20060;-62
2021/03/13 05:02:41;;;;;;;25.17;13.65;;;;;;;;;;4992707;28;20033;-63
2021/03/13 05:05:07;;;;;;;27.23;15.55;;;;;;;;;;5007467;28;20126;-61
2021/03/13 05:07:32;;;;;;;32.20;15.68;;;;;;;;;;4992979;28;20065;-61
2021/03/13 05:09:58;;;;;;;27.40;15.05;;;;;;;;;;4993080;28;20058;-61
2021/03/13 05:12:23;;;;;;;27.55;16.05;;;;;;;;;;4992858;28;20497;-61
2021/03/13 05:14:49;;;;;;;39.38;22.67;;;;;;;;;;4992665;28;20117;-61
2021/03/13 05:17:14;;;;;;;52.63;29.80;;;;;;;;;;4993073;28;20472;-61
2021/03/13 05:19:40;;;;;;;42.38;26.77;;;;;;;;;;4992834;28;20054;-62
2021/03/13 05:22:06;;;;;;;32.13;19.55;;;;;;;;;;4992925;28;20022;-62
2021/03/13 05:24:31;;;;;;;51.70;31.42;;;;;;;;;;4991520;28;20370;-61
2021/03/13 05:26:57;;;;;;;65.43;39.35;;;;;;;;;;4992870;28;20023;-62
2021/03/13 05:29:22;;;;;;;50.50;30.20;;;;;;;;;;4992628;28;20535;-62
2021/03/13 05:31:48;;;;;;;50.15;28.60;;;;;;;;;;4992789;28;20033;-61
2021/03/13 05:34:14;;;;;;;42.38;23.48;;;;;;;;;;5007678;28;20027;-62
2021/03/13 05:36:39;;;;;;;37.08;23.33;;;;;;;;;;4992370;28;20046;-61
2021/03/13 05:39:05;;;;;;;38.40;23.38;;;;;;;;;;4992182;28;20027;-62
2021/03/13 05:41:31;;;;;;;47.00;26.42;;;;;;;;;;4992400;28;20072;-62
2021/03/13 05:43:59;;;;;;;37.67;21.85;;;;;;;;;;4992260;28;20022;-62
2021/03/13 05:46:24;;;;;;;27.85;15.52;;;;;;;;;;4992239;28;20470;-61
2021/03/13 05:48:50;;;;;;;29.02;17.90;;;;;;;;;;4992350;28;20105;-62
2021/03/13 05:51:15;;;;;;;35.10;19.15;;;;;;;;;;4992391;28;20015;-62
2021/03/13 05:53:41;;;;;;;34.47;18.17;;;;;;;;;;4992316;28;20026;-61
2021/03/13 05:56:09;;;;;;;33.38;19.08;;;;;;;;;;4992053;28;20031;-61
2021/03/13 05:58:38;;;;;;;33.20;19.20;;;;;;;;;;4992017;28;20095;-61
2021/03/13 06:01:07;;;;;;;33.60;19.02;;;;;;;;;;4992127;28;20018;-61
2021/03/13 06:03:33;;;;;;;30.17;17.10;;;;;;;;;;4992309;28;20026;-61
2021/03/13 06:05:59;;;;;;;26.48;15.20;;;;;;;;;;4991841;28;20099;-61
2021/03/13 06:08:25;;;;;;;27.92;14.23;;;;;;;;;;4991989;28;20042;-61
2021/03/13 06:10:50;;;;;;;24.23;13.50;;;;;;;;;;4991850;28;20030;-61
2021/03/13 06:13:16;;;;;;;26.27;13.77;;;;;;;;;;4992119;28;20105;-61
2021/03/13 06:15:44;;;;;;;24.20;13.98;;;;;;;;;;4990885;28;20492;-61
2021/03/13 06:18:09;;;;;;;22.67;13.45;;;;;;;;;;4992016;28;20031;-61
2021/03/13 06:20:36;;;;;;;19.10;10.68;;;;;;;;;;4991743;28;20031;-61
2021/03/13 06:23:03;;;;;;;18.80;10.52;;;;;;;;;;4991963;28;20041;-61
2021/03/13 06:25:29;;;;;;;18.02;9.65;;;;;;;;;;4991496;28;20037;-61
2021/03/13 06:28:03;;;;;;;13.07;9.18;;;;;;;;;;4990650;28;20382;-61
2021/03/13 06:30:40;;;;;;;14.18;8.90;;;;;;;;;;4991629;28;20482;-61
2021/03/13 06:33:24;;;;;;;15.00;8.63;;;;;;;;;;4991736;28;20038;-61
2021/03/13 06:35:51;;;;;;;16.83;9.65;;;;;;;;;;4991416;28;20030;-61
2021/03/13 06:38:19;;;;;;;14.00;8.68;;;;;;;;;;4991511;28;20014;-61
2021/03/13 06:40:44;;;;;;;13.95;8.15;;;;;;;;;;4991297;28;20151;-61
2021/03/13 06:43:29;;;;;;;12.95;7.60;;;;;;;;;;4989998;28;20043;-61
2021/03/13 06:45:56;;;;;;;10.90;6.88;;;;;;;;;;4991195;28;20481;-61
2021/03/13 06:48:48;;;;;;;13.90;7.20;;;;;;;;;;4990153;28;20053;-61
2021/03/13 06:51:22;;;;;;;11.30;7.20;;;;;;;;;;4993828;28;20038;-61
2021/03/13 06:54:01;;;;;;;13.40;7.50;;;;;;;;;;4990187;28;20385;-60
2021/03/13 06:56:30;;;;;;;11.25;7.25;;;;;;;;;;4991267;28;20489;-60
2021/03/13 06:58:56;;;;;;;12.35;7.07;;;;;;;;;;4990901;28;20495;-61
2021/03/13 07:01:26;;;;;;;11.25;7.05;;;;;;;;;;4990461;28;20097;-60
2021/03/13 07:03:52;;;;;;;10.80;6.97;;;;;;;;;;4991032;28;20447;-61
2021/03/13 07:06:18;;;;;;;12.40;7.95;;;;;;;;;;4991463;28;20099;-61
2021/03/13 07:08:46;;;;;;;11.40;6.70;;;;;;;;;;4991341;28;20032;-60
2021/03/13 07:11:14;;;;;;;10.38;6.65;;;;;;;;;;5001012;28;20018;-61
2021/03/13 07:13:44;;;;;;;12.05;6.30;;;;;;;;;;5007203;28;20370;-61
2021/03/13 07:16:28;;;;;;;11.40;7.00;;;;;;;;;;5002959;28;20050;-61
2021/03/13 07:18:58;;;;;;;9.70;6.60;;;;;;;;;;4990620;28;20042;-61
2021/03/13 07:21:24;;;;;;;12.07;7.40;;;;;;;;;;4990574;28;20026;-61
2021/03/13 07:23:52;;;;;;;14.00;8.02;;;;;;;;;;5005365;28;20015;-61
2021/03/13 07:26:18;;;;;;;15.57;9.15;;;;;;;;;;5009391;28;20079;-61
2021/03/13 07:28:44;;;;;;;16.92;9.57;;;;;;;;;;5014291;28;20026;-61
2021/03/13 07:31:10;;;;;;;15.00;8.52;;;;;;;;;;5004185;28;20455;-61
2021/03/13 07:33:39;;;;;;;8.48;4.45;;;;;;;;;;4993625;28;20046;-61
2021/03/13 07:36:07;;;;;;;12.57;6.78;;;;;;;;;;4994368;28;20035;-61
2021/03/13 07:38:33;;;;;;;10.65;5.47;;;;;;;;;;4994268;28;20086;-62
2021/03/13 07:40:59;;;;;;;10.25;5.30;;;;;;;;;;4994279;28;20026;-61
2021/03/13 07:43:25;;;;;;;10.65;5.07;;;;;;;;;;4994360;28;20029;-61
2021/03/13 07:45:51;;;;;;;12.07;6.35;;;;;;;;;;4994032;28;20037;-61
2021/03/13 07:48:16;;;;;;;10.25;5.82;;;;;;;;;;4994073;28;20112;-61
2021/03/13 07:50:46;;;;;;;10.15;5.57;;;;;;;;;;4994004;28;20026;-62
2021/03/13 07:53:12;;;;;;;5.20;4.00;;;;;;;;;;4993686;28;20114;-61
2021/03/13 07:55:38;;;;;;;7.60;3.80;;;;;;;;;;4993136;28;20113;-61
2021/03/13 07:58:03;;;;;;;6.60;4.05;;;;;;;;;;4993742;28;20053;-62
2021/03/13 08:00:45;;;;;;;5.32;3.40;;;;;;;;;;4993285;28;20109;-61
2021/03/13 08:03:45;;;;;;;3.65;2.88;;;;;;;;;;4993337;28;20054;-62
2021/03/13 08:06:14;;;;;;;4.90;3.40;;;;;;;;;;5012563;28;20514;-62
2021/03/13 08:08:40;;;;;;;5.32;3.35;;;;;;;;;;4998259;28;20129;-61
2021/03/13 08:11:06;;;;;;;6.85;3.72;;;;;;;;;;4993182;28;20113;-62
2021/03/13 08:13:32;;;;;;;5.45;3.58;;;;;;;;;;4993420;28;20019;-61
2021/03/13 08:16:06;;;;;;;2.72;1.88;;;;;;;;;;4993190;28;20019;-62
2021/03/13 08:18:39;;;;;;;5.80;3.88;;;;;;;;;;4992850;28;20155;-61
2021/03/13 08:21:19;;;;;;;4.70;3.00;;;;;;;;;;4993180;28;20041;-62
2021/03/13 08:23:52;;;;;;;5.40;3.22;;;;;;;;;;4993255;28;20049;-61
2021/03/13 08:26:18;;;;;;;7.15;3.58;;;;;;;;;;4990967;28;20393;-61
2021/03/13 08:31:33;;;;;;;5.82;3.30;;;;;;;;;;4993492;28;20034;-62
2021/03/13 08:34:02;;;;;;;7.28;2.25;;;;;;;;;;4992561;28;20130;-61
2021/03/13 08:36:28;;;;;;;2.13;1.95;;;;;;;;;;4988724;28;20550;-60
2021/03/13 08:39:01;;;;;;;4.10;2.35;;;;;;;;;;4983107;28;20446;-60
2021/03/13 08:41:45;;;;;;;5.40;2.22;;;;;;;;;;4979842;28;20022;-62
2021/03/13 08:44:14;;;;;;;3.28;2.08;;;;;;;;;;4990404;28;20041;-62
2021/03/13 08:46:40;;;;;;;2.50;1.77;;;;;;;;;;4983076;28;20026;-61
2021/03/13 08:49:06;;;;;;;7.85;3.88;;;;;;;;;;4989016;28;20491;-61
2021/03/13 08:51:31;;;;;;;4.07;2.60;;;;;;;;;;4983893;28;20045;-62
2021/03/13 08:53:57;;;;;;;3.53;2.58;;;;;;;;;;4987721;28;20130;-64
2021/03/13 08:56:34;;;;;;;6.97;3.47;;;;;;;;;;4985335;28;20054;-63
2021/03/13 08:59:07;;;;;;;2.40;1.95;;;;;;;;;;4975206;28;20066;-63
2021/03/13 09:01:33;;;;;;;3.03;2.08;;;;;;;;;;4989207;28;20033;-63
2021/03/13 09:03:58;;;;;;;4.20;2.25;;;;;;;;;;4992390;28;20054;-63
2021/03/13 09:06:24;;;;;;;1.33;1.10;;;;;;;;;;4975492;28;20066;-63
2021/03/13 09:08:49;;;;;;;2.55;1.65;;;;;;;;;;4982105;28;20466;-65
2021/03/13 09:11:26;;;;;;;3.17;1.77;;;;;;;;;;5001607;28;20039;-66
2021/03/13 09:14:01;;;;;;;4.75;2.00;;;;;;;;;;4992634;28;20034;-65
2021/03/13 09:16:27;;;;;;;6.05;2.97;;;;;;;;;;4990920;28;20095;-65
2021/03/13 09:18:55;;;;;;;2.40;1.67;;;;;;;;;;4992616;28;20085;-63
2021/03/13 09:21:37;;;;;;;0.88;0.88;;;;;;;;;;4976863;28;20543;-65
2021/03/13 09:24:04;;;;;;;1.83;1.42;;;;;;;;;;4972717;28;20113;-65
2021/03/13 09:26:30;;;;;;;2.50;0.95;;;;;;;;;;5005898;28;20020;-65
2021/03/13 09:28:55;;;;;;;1.65;1.40;;;;;;;;;;4977228;28;20109;-65
2021/03/13 09:31:21;;;;;;;2.53;1.17;;;;;;;;;;4979781;28;20046;-65
2021/03/13 09:33:46;;;;;;;4.25;1.60;;;;;;;;;;4990810;28;20027;-65
2021/03/13 09:36:12;;;;;;;2.30;1.30;;;;;;;;;;4979056;28;20105;-64
2021/03/13 09:38:37;;;;;;;3.22;1.75;;;;;;;;;;4980120;28;20030;-66
2021/03/13 09:41:13;;;;;;;1.55;0.73;;;;;;;;;;4984388;28;20018;-65
2021/03/13 09:43:39;;;;;;;1.88;1.05;;;;;;;;;;4988576;28;20031;-64
2021/03/13 09:46:17;;;;;;;1.88;1.58;;;;;;;;;;4985999;28;20026;-65
2021/03/13 09:48:43;;;;;;;2.00;1.13;;;;;;;;;;4979698;28;20030;-65
2021/03/13 09:51:09;;;;;;;0.63;0.50;;;;;;;;;;4985080;28;20432;-64
2021/03/13 09:53:36;;;;;;;1.80;1.23;;;;;;;;;;4975468;28;20036;-63
2021/03/13 09:56:01;;;;;;;1.75;1.00;;;;;;;;;;4978693;28;20023;-64
2021/03/13 09:58:27;;;;;;;1.63;1.25;;;;;;;;;;4988001;28;20030;-63
2021/03/13 10:00:53;;;;;;;2.67;1.48;;;;;;;;;;4996802;28;20022;-65
2021/03/13 10:03:20;;;;;;;1.63;0.88;;;;;;;;;;4985418;28;20034;-64
2021/03/13 10:05:50;;;;;;;1.27;1.10;;;;;;;;;;4978533;28;20180;-64
2021/03/13 10:08:17;;;;;;;3.50;1.15;;;;;;;;;;4972454;28;20131;-65
2021/03/13 10:10:47;;;;;;;1.80;0.88;;;;;;;;;;4972331;28;20027;-64
2021/03/13 10:13:14;;;;;;;;;;;;;;;;;;4971378;28;20042;-65
2021/03/13 10:15:41;;;;;;;1.63;1.15;;;;;;;;;;4971963;28;20288;-67
2021/03/13 10:18:16;;;;;;;2.47;0.88;;;;;;;;;;4971879;28;20027;-65
2021/03/13 10:20:45;;;;;;;2.55;1.30;;;;;;;;;;4972265;28;20371;-65
2021/03/13 10:23:13;;;;;;;1.08;0.98;;;;;;;;;;4975213;28;20035;-65
2021/03/13 10:25:40;;;;;;;1.20;0.73;;;;;;;;;;4988871;28;20042;-64
2021/03/13 10:28:07;;;;;;;1.95;1.67;;;;;;;;;;4982566;28;20041;-59
2021/03/13 10:30:36;;;;;;;1.85;1.50;;;;;;;;;;4972790;28;20038;-64
2021/03/13 10:33:02;;;;;;;3.72;1.60;;;;;;;;;;4987792;28;20117;-64
2021/03/13 10:35:28;;;;;;;0.95;0.90;;;;;;;;;;4975099;28;20102;-64
2021/03/13 10:37:55;;;;;;;2.15;1.33;;;;;;;;;;4984372;28;20109;-64
2021/03/13 10:40:36;;;;;;;1.90;1.13;;;;;;;;;;4991171;28;20026;-64
2021/03/13 10:43:31;;;;;;;2.53;1.40;;;;;;;;;;4988391;28;20054;-64
2021/03/13 10:45:57;;;;;;;1.48;1.38;;;;;;;;;;4970767;28;20057;-64
2021/03/13 10:48:23;;;;;;;1.70;1.08;;;;;;;;;;4983489;28;20517;-64
2021/03/13 10:50:48;;;;;;;2.20;1.30;;;;;;;;;;4976621;28;20041;-64
2021/03/13 10:53:27;;;;;;;1.50;1.38;;;;;;;;;;4987593;28;20443;-65
2021/03/13 10:55:55;;;;;;;1.42;1.02;;;;;;;;;;4986846;28;20389;-64
2021/03/13 10:58:28;;;;;;;1.67;0.40;;;;;;;;;;4989808;28;20014;-65
2021/03/13 11:00:55;;;;;;;1.17;0.82;;;;;;;;;;4989835;28;20030;-64
2021/03/13 11:03:20;;;;;;;2.10;1.25;;;;;;;;;;4981526;28;20014;-64
2021/03/13 11:05:51;;;;;;;1.38;0.95;;;;;;;;;;4981996;28;20405;-64
2021/03/13 11:08:20;;;;;;;1.63;1.42;;;;;;;;;;4989145;28;20034;-64
2021/03/13 11:10:49;;;;;;;1.95;1.17;;;;;;;;;;4971663;28;20031;-65
2021/03/13 11:13:15;;;;;;;2.42;1.40;;;;;;;;;;4972569;28;20082;-64
2021/03/13 11:15:41;;;;;;;2.22;1.48;;;;;;;;;;4990325;28;20034;-64
2021/03/13 11:18:13;;;;;;;1.85;0.90;;;;;;;;;;4983154;28;20034;-64
2021/03/13 11:20:39;;;;;;;1.42;0.63;;;;;;;;;;4978718;28;20033;-65
2021/03/13 11:23:05;;;;;;;2.40;1.20;;;;;;;;;;4984599;28;20054;-64
2021/03/13 11:25:30;;;;;;;1.33;0.73;;;;;;;;;;4989385;28;20053;-64
2021/03/13 11:27:56;;;;;;;0.38;0.38;;;;;;;;;;4990862;28;20076;-64
2021/03/13 11:30:22;;;;;;;1.17;0.85;;;;;;;;;;4990740;28;20465;-64
2021/03/13 11:32:50;;;;;;;1.10;0.80;;;;;;;;;;4990623;28;20014;-64
2021/03/13 11:35:18;;;;;;;0.80;0.52;;;;;;;;;;4985042;28;20026;-64
2021/03/13 11:37:44;;;;;;;1.52;1.15;;;;;;;;;;4971153;28;20018;-64
2021/03/13 11:40:10;;;;;;;0.50;0.50;;;;;;;;;;4971277;28;20026;-64
2021/03/13 11:42:36;;;;;;;1.27;0.82;;;;;;;;;;4979648;28;20041;-64
2021/03/13 11:45:03;;;;;;;3.78;0.88;;;;;;;;;;4981941;28;20026;-56
2021/03/13 11:47:29;;;;;;;0.75;0.70;;;;;;;;;;4982664;28;20033;-58
2021/03/13 11:49:55;;;;;;;1.42;1.23;;;;;;;;;;4970872;28;20494;-61
2021/03/13 11:52:21;;;;;;;1.88;1.30;;;;;;;;;;4980270;28;20030;-63
2021/03/13 11:54:48;;;;;;;1.25;0.95;;;;;;;;;;4971979;28;20577;-58
2021/03/13 11:57:14;;;;;;;1.80;1.23;;;;;;;;;;4978068;28;20019;-58
2021/03/13 11:59:41;;;;;;;1.77;1.10;;;;;;;;;;4987871;28;20050;-61
2021/03/13 12:02:06;;;;;;;3.60;1.75;;;;;;;;;;4984741;28;20342;-62
2021/03/13 12:04:32;;;;;;;1.60;1.35;;;;;;;;;;4974008;28;20074;-62
2021/03/13 12:06:57;;;;;;;4.18;1.13;;;;;;;;;;4982927;28;20030;-62
2021/03/13 12:09:22;;;;;;;2.40;1.55;;;;;;;;;;4989958;28;20031;-62
2021/03/13 12:11:49;;;;;;;0.75;0.65;;;;;;;;;;4994671;28;20031;-62
2021/03/13 12:14:15;;;;;;;2.38;0.93;;;;;;;;;;4971956;28;20027;-62
2021/03/13 12:16:40;;;;;;;2.53;1.10;;;;;;;;;;4981626;28;20471;-62
2021/03/13 12:19:06;;;;;;;1.70;1.10;;;;;;;;;;4978279;28;20153;-61
2021/03/13 12:21:32;;;;;;;1.92;1.23;;;;;;;;;;4979159;28;20031;-62
2021/03/13 12:23:58;;;;;;;2.95;1.83;;;;;;;;;;4993239;28;20018;-62
2021/03/13 12:26:25;;;;;;;1.45;0.77;;;;;;;;;;4985304;28;20033;-62
2021/03/13 12:28:50;;;;;;;1.98;1.65;;;;;;;;;;4973763;28;20419;-62
2021/03/13 12:31:16;;;;;;;1.40;0.60;;;;;;;;;;4975595;28;20065;-62
2021/03/13 12:33:41;;;;;;;0.80;0.80;;;;;;;;;;4981208;28;20037;-62
2021/03/13 12:36:07;;;;;;;0.88;0.80;;;;;;;;;;4977111;28;20172;-62
2021/03/13 12:38:33;;;;;;;1.30;1.20;;;;;;;;;;4982131;28;20050;-62
2021/03/13 12:40:59;;;;;;;1.85;1.10;;;;;;;;;;4982716;28;20437;-62
2021/03/13 12:43:24;;;;;;;2.13;1.40;;;;;;;;;;4983595;28;20069;-62
2021/03/13 12:45:49;;;;;;;1.10;1.00;;;;;;;;;;4984549;28;20029;-62
2021/03/13 12:48:15;;;;;;;1.20;1.02;;;;;;;;;;4982294;28;20038;-61
2021/03/13 12:50:42;;;;;;;1.55;1.38;;;;;;;;;;4984262;28;20494;-62
2021/03/13 12:53:08;;;;;;;1.92;1.17;;;;;;;;;;4981579;28;20036;-62
2021/03/13 12:55:34;;;;;;;1.92;0.80;;;;;;;;;;4981749;28;20084;-62
2021/03/13 12:57:59;;;;;;;4.55;1.10;;;;;;;;;;4986538;28;20027;-62
2021/03/13 13:00:25;;;;;;;0.93;0.77;;;;;;;;;;4988907;28;20035;-62
2021/03/13 13:02:50;;;;;;;2.17;0.70;;;;;;;;;;4972837;28;20042;-62
2021/03/13 13:05:16;;;;;;;1.17;0.95;;;;;;;;;;4982930;28;20116;-62
2021/03/13 13:07:46;;;;;;;2.35;1.38;;;;;;;;;;4978834;28;20038;-62
2021/03/13 13:10:12;;;;;;;2.30;1.20;;;;;;;;;;4981815;28;20088;-64
2021/03/13 13:12:38;;;;;;;1.50;1.15;;;;;;;;;;4972862;28;20037;-62
2021/03/13 13:15:03;;;;;;;1.92;1.33;;;;;;;;;;4971608;28;20761;-61
2021/03/13 13:17:32;;;;;;;1.83;1.42;;;;;;;;;;4973010;28;20129;-62
2021/03/13 13:20:00;;;;;;;1.75;1.40;;;;;;;;;;4972914;28;20101;-62
2021/03/13 13:22:27;;;;;;;3.28;1.80;;;;;;;;;;4972969;28;20413;-62
2021/03/13 13:24:52;;;;;;;3.38;1.95;;;;;;;;;;4971503;28;20027;-62
2021/03/13 13:27:18;;;;;;;3.05;1.40;;;;;;;;;;4973141;28;20034;-62
2021/03/13 13:29:43;;;;;;;3.30;2.85;;;;;;;;;;4972830;28;20488;-61
2021/03/13 13:32:09;;;;;;;3.88;1.85;;;;;;;;;;4972973;28;20037;-62
2021/03/13 13:34:35;;;;;;;1.65;1.55;;;;;;;;;;4972823;28;20027;-61
2021/03/13 13:37:00;;;;;;;3.35;2.55;;;;;;;;;;4972491;28;20042;-62
2021/03/13 13:39:26;;;;;;;2.85;2.03;;;;;;;;;;4972774;28;20110;-62
2021/03/13 13:41:52;;;;;;;1.73;1.52;;;;;;;;;;4971478;28;20474;-62
2021/03/13 13:44:18;;;;;;;2.95;1.13;;;;;;;;;;4974001;28;20019;-62
2021/03/13 13:46:43;;;;;;;2.10;1.90;;;;;;;;;;4981819;28;20034;-63
2021/03/13 13:49:11;;;;;;;3.90;2.72;;;;;;;;;;4971132;28;20762;-63
2021/03/13 13:51:37;;;;;;;3.03;1.85;;;;;;;;;;4979021;28;20148;-63
2021/03/13 13:54:04;;;;;;;1.42;1.30;;;;;;;;;;4979503;28;20467;-63
2021/03/13 13:56:29;;;;;;;3.65;2.47;;;;;;;;;;4990283;28;20171;-63
2021/03/13 13:58:55;;;;;;;3.08;2.00;;;;;;;;;;4984414;28;20109;-63
2021/03/13 14:01:20;;;;;;;2.15;1.50;;;;;;;;;;4977081;28;20023;-62
2021/03/13 14:03:46;;;;;;;3.03;1.90;;;;;;;;;;4971997;28;20466;-61
2021/03/13 14:06:12;;;;;;;2.78;1.52;;;;;;;;;;4970704;28;20051;-61
2021/03/13 14:08:38;;;;;;;2.10;1.35;;;;;;;;;;4972219;28;20026;-62
2021/03/13 14:11:04;;;;;;;4.97;1.75;;;;;;;;;;4971935;28;20106;-62
2021/03/13 14:13:30;;;;;;;2.22;2.00;;;;;;;;;;4972190;28;20034;-63
2021/03/13 14:15:56;;;;;;;3.22;1.90;;;;;;;;;;4971837;28;20031;-63
2021/03/13 14:18:21;;;;;;;1.52;1.23;;;;;;;;;;4971975;28;20058;-63
2021/03/13 14:20:47;;;;;;;1.98;1.67;;;;;;;;;;4985635;28;20103;-63
2021/03/13 14:23:12;;;;;;;1.70;1.60;;;;;;;;;;4990941;28;20033;-63
2021/03/13 14:25:38;;;;;;;1.88;1.50;;;;;;;;;;4990985;28;20040;-63
2021/03/13 14:28:03;;;;;;;2.03;1.30;;;;;;;;;;4991053;28;20031;-63
2021/03/13 14:30:29;;;;;;;2.00;1.50;;;;;;;;;;4991116;28;20026;-63
2021/03/13 14:32:54;;;;;;;1.88;1.58;;;;;;;;;;4991135;28;20500;-63
2021/03/13 14:35:22;;;;;;;3.65;1.95;;;;;;;;;;4991057;28;20030;-63
2021/03/13 14:37:47;;;;;;;3.65;1.80;;;;;;;;;;4988795;28;20030;-63